createdAt,value
2022-10-21T00:00:26.724Z,13.63
2022-10-21T00:03:29.513Z,10.55
2022-10-21T00:06:32.133Z,8.98
2022-10-21T00:09:36.102Z,9.82
2022-10-21T00:12:39.462Z,10.32
2022-10-21T00:15:42.409Z,10.95
2022-10-21T00:18:46.297Z,10.25
2022-10-21T00:21:49.315Z,12.10
2022-10-21T00:24:53.510Z,11.85
2022-10-21T00:28:00.757Z,14.55
2022-10-21T00:31:03.783Z,13.50
2022-10-21T00:34:06.448Z,12.55
2022-10-21T00:37:09.071Z,14.30
2022-10-21T00:40:13.160Z,12.02
2022-10-21T00:43:15.926Z,12.63
2022-10-21T00:46:18.665Z,10.88
2022-10-21T00:49:26.216Z,12.25
2022-10-21T00:52:32.898Z,11.88
2022-10-21T00:55:40.659Z,11.02
2022-10-21T00:58:43.362Z,12.40
2022-10-21T01:01:46.125Z,13.65
2022-10-21T01:04:53.122Z,12.18
2022-10-21T01:07:55.970Z,9.98
2022-10-21T01:11:02.152Z,12.25
2022-10-21T01:14:20.797Z,11.93
2022-10-21T01:17:44.949Z,10.02
2022-10-21T01:21:08.203Z,8.95
2022-10-21T01:24:30.708Z,11.32
2022-10-21T01:27:51.457Z,11.13
2022-10-21T01:30:58.264Z,10.07
2022-10-21T01:34:09.496Z,12.43
2022-10-21T01:37:21.739Z,12.50
2022-10-21T01:40:32.404Z,9.98
2022-10-21T01:43:42.376Z,8.68
2022-10-21T01:46:50.067Z,11.52
2022-10-21T01:49:57.286Z,9.73
2022-10-21T01:53:04.317Z,9.43
2022-10-21T01:56:10.048Z,9.82
2022-10-21T01:59:14.552Z,13.65
2022-10-21T02:02:20.741Z,9.85
2022-10-21T02:05:26.850Z,9.95
2022-10-21T02:08:32.122Z,11.13
2022-10-21T02:11:38.479Z,9.43
2022-10-21T02:14:45.008Z,11.88
2022-10-21T02:17:52.955Z,12.40
2022-10-21T02:20:58.128Z,11.85
2022-10-21T02:24:06.142Z,11.60
2022-10-21T02:27:09.036Z,10.60
2022-10-21T02:30:12.005Z,11.80
2022-10-21T02:33:24.820Z,8.88
2022-10-21T02:36:37.664Z,10.18
2022-10-21T02:39:47.565Z,11.82
2022-10-21T02:42:55.739Z,9.73
2022-10-21T02:46:02.585Z,9.27
2022-10-21T02:49:06.965Z,9.32
2022-10-21T02:52:09.574Z,12.65
2022-10-21T02:55:12.187Z,8.52
2022-10-21T02:58:14.797Z,9.60
2022-10-21T03:01:17.615Z,9.38
2022-10-21T03:04:22.658Z,10.27
2022-10-21T03:07:25.326Z,9.20
2022-10-21T03:10:27.946Z,9.18
2022-10-21T03:13:30.586Z,11.02
2022-10-21T03:16:33.205Z,9.65
2022-10-21T03:19:37.562Z,9.70
2022-10-21T03:22:40.357Z,7.50
2022-10-21T03:25:43.106Z,11.55
2022-10-21T03:28:45.702Z,12.10
2022-10-21T03:31:48.298Z,9.63
2022-10-21T03:34:52.336Z,10.43
2022-10-21T03:37:55.305Z,10.07
2022-10-21T03:40:58.357Z,10.38
2022-10-21T03:44:00.955Z,9.95
2022-10-21T03:47:03.633Z,8.18
2022-10-21T03:50:11.945Z,11.40
2022-10-21T03:53:30.986Z,8.85
2022-10-21T03:56:39.332Z,10.20
2022-10-21T03:59:41.961Z,8.85
2022-10-21T04:02:44.849Z,7.25
2022-10-21T04:05:49.478Z,9.23
2022-10-21T04:08:52.172Z,8.63
2022-10-21T04:11:54.897Z,11.85
2022-10-21T04:14:57.524Z,8.43
2022-10-21T04:18:00.166Z,9.73
2022-10-21T04:21:04.405Z,8.90
2022-10-21T04:24:07.050Z,10.70
2022-10-21T04:27:09.726Z,6.30
2022-10-21T04:30:12.472Z,9.07
2022-10-21T04:33:15.129Z,10.70
2022-10-21T04:36:19.283Z,8.45
2022-10-21T04:39:22.367Z,11.38
2022-10-21T04:42:25.291Z,7.07
2022-10-21T04:45:27.960Z,7.90
2022-10-21T04:48:30.721Z,5.93
2022-10-21T04:51:34.689Z,6.55
2022-10-21T04:54:37.308Z,7.05
2022-10-21T04:57:41.221Z,7.13
2022-10-21T05:00:44.343Z,6.68
2022-10-21T05:03:47.114Z,5.95
2022-10-21T05:06:51.167Z,8.90
2022-10-21T05:09:53.762Z,6.00
2022-10-21T05:12:56.407Z,5.85
2022-10-21T05:16:00.115Z,5.80
2022-10-21T05:19:02.740Z,8.85
2022-10-21T05:22:06.735Z,7.60
2022-10-21T05:25:10.335Z,5.60
2022-10-21T05:28:13.201Z,8.00
2022-10-21T05:31:15.829Z,5.53
2022-10-21T05:34:18.697Z,6.15
2022-10-21T05:37:22.734Z,7.43
2022-10-21T05:40:25.377Z,4.00
2022-10-21T05:43:28.890Z,6.32
2022-10-21T05:46:31.506Z,4.43
2022-10-21T05:49:34.533Z,5.22
2022-10-21T05:52:39.002Z,4.72
2022-10-21T05:55:41.756Z,4.50
2022-10-21T05:58:44.398Z,6.80
2022-10-21T06:01:47.418Z,3.03
2022-10-21T06:04:50.027Z,8.60
2022-10-21T06:07:54.017Z,3.75
2022-10-21T06:11:03.438Z,6.88
2022-10-21T06:14:06.077Z,4.15
2022-10-21T06:17:08.726Z,6.93
2022-10-21T06:20:11.657Z,4.55
2022-10-21T06:23:16.312Z,3.78
2022-10-21T06:26:18.947Z,3.10
2022-10-21T06:29:21.570Z,8.00
2022-10-21T06:32:24.211Z,5.85
2022-10-21T06:35:27.330Z,4.43
2022-10-21T06:38:32.232Z,4.15
2022-10-21T06:41:34.949Z,4.50
2022-10-21T06:44:37.591Z,5.43
2022-10-21T06:47:40.674Z,6.85
2022-10-21T06:50:43.685Z,5.75
2022-10-21T06:53:49.136Z,4.50
2022-10-21T06:56:51.802Z,4.88
2022-10-21T06:59:54.422Z,9.13
2022-10-21T07:02:57.349Z,6.68
2022-10-21T07:06:00.628Z,6.43
2022-10-21T07:09:05.101Z,8.18
2022-10-21T07:12:08.180Z,5.28
2022-10-21T07:15:11.709Z,6.30
2022-10-21T07:18:14.333Z,5.63
2022-10-21T07:21:19.534Z,5.82
2022-10-21T07:24:23.568Z,5.70
2022-10-21T07:27:26.614Z,4.97
2022-10-21T07:30:29.222Z,6.22
2022-10-21T07:33:32.571Z,8.32
2022-10-21T07:36:38.347Z,7.70
2022-10-21T07:39:42.409Z,4.32
2022-10-21T07:42:45.086Z,5.15
2022-10-21T07:45:47.785Z,4.22
2022-10-21T07:48:51.150Z,5.18
2022-10-21T07:51:54.255Z,8.70
2022-10-21T07:54:58.347Z,5.18
2022-10-21T07:58:01.121Z,7.90
2022-10-21T08:01:07.069Z,7.85
2022-10-21T08:04:11.474Z,4.55
2022-10-21T08:07:14.133Z,7.05
2022-10-21T08:10:18.376Z,10.48
2022-10-21T08:13:21.562Z,6.75
2022-10-21T08:16:25.041Z,5.07
2022-10-21T08:19:29.684Z,6.25
2022-10-21T08:22:32.425Z,6.10
2022-10-21T08:25:36.590Z,5.50
2022-10-21T08:28:39.285Z,5.53
2022-10-21T08:31:41.937Z,7.43
2022-10-21T08:34:44.937Z,7.90
2022-10-21T08:37:49.813Z,8.27
2022-10-21T08:40:55.712Z,8.85
2022-10-21T08:44:03.746Z,5.20
2022-10-21T08:47:15.317Z,5.03
2022-10-21T08:50:21.576Z,6.22
2022-10-21T08:53:28.869Z,5.57
2022-10-21T08:56:33.445Z,6.13
2022-10-21T08:59:36.048Z,5.70
2022-10-21T09:02:59.087Z,6.18
2022-10-21T09:06:18.483Z,6.50
2022-10-21T09:09:29.490Z,7.60
2022-10-21T09:12:40.358Z,5.35
2022-10-21T09:15:54.951Z,5.90
2022-10-21T09:19:10.920Z,4.28
2022-10-21T09:22:35.966Z,6.13
2022-10-21T09:25:46.881Z,5.85
2022-10-21T09:28:54.924Z,3.53
2022-10-21T09:32:04.035Z,4.25
2022-10-21T09:35:15.268Z,5.13
2022-10-21T09:38:21.823Z,3.28
2022-10-21T09:41:27.413Z,5.15
2022-10-21T09:44:31.451Z,4.50
2022-10-21T09:47:34.053Z,4.15
2022-10-21T09:50:38.573Z,6.50
2022-10-21T09:53:53.700Z,6.22
2022-10-21T09:57:02.800Z,6.13
2022-10-21T10:00:11.176Z,4.55
2022-10-21T10:03:31.888Z,3.55
2022-10-21T10:06:37.133Z,4.22
2022-10-21T10:09:46.684Z,4.95
2022-10-21T10:12:56.927Z,5.65
2022-10-21T10:16:16.051Z,3.90
2022-10-21T10:19:21.321Z,4.07
2022-10-21T10:22:24.807Z,5.28
2022-10-21T10:25:32.337Z,4.38
2022-10-21T10:28:35.172Z,5.10
2022-10-21T10:31:39.894Z,3.03
2022-10-21T10:34:53.134Z,2.90
2022-10-21T10:37:58.406Z,3.03
2022-10-21T10:41:06.350Z,2.35
2022-10-21T10:44:13.012Z,3.38
2022-10-21T10:47:25.409Z,5.13
2022-10-21T10:50:46.777Z,4.05
2022-10-21T10:54:01.216Z,3.70
2022-10-21T10:57:07.710Z,2.42
2022-10-21T11:00:18.378Z,3.17
2022-10-21T11:03:28.857Z,4.43
2022-10-21T11:06:37.604Z,2.30
2022-10-21T11:09:40.805Z,1.95
2022-10-21T11:12:43.418Z,1.85
2022-10-21T11:15:58.900Z,3.17
2022-10-21T11:19:09.318Z,2.70
2022-10-21T11:22:16.378Z,2.05
2022-10-21T11:25:23.910Z,1.55
2022-10-21T11:28:30.077Z,2.50
2022-10-21T11:32:09.766Z,2.28
2022-10-21T11:35:33.169Z,1.02
2022-10-21T11:38:51.642Z,2.20
2022-10-21T11:42:01.228Z,1.90
2022-10-21T11:45:30.523Z,1.30
2022-10-21T11:48:57.361Z,2.10
2022-10-21T11:52:11.069Z,1.92
2022-10-21T11:55:38.593Z,0.88
2022-10-21T11:58:52.746Z,1.95
2022-10-21T12:02:01.701Z,1.02
2022-10-21T12:05:12.955Z,0.85
2022-10-21T12:08:21.592Z,1.63
2022-10-21T12:11:28.895Z,1.17
2022-10-21T12:14:35.626Z,0.50
2022-10-21T12:17:38.458Z,0.55
2022-10-21T12:20:41.565Z,1.42
2022-10-21T12:23:48.477Z,1.15
2022-10-21T12:26:57.849Z,1.20
2022-10-21T12:30:08.455Z,1.73
2022-10-21T12:33:18.949Z,0.40
2022-10-21T12:36:40.754Z,0.40
2022-10-21T12:39:52.386Z,1.05
2022-10-21T12:43:00.088Z,2.15
2022-10-21T12:46:05.665Z,2.03
2022-10-21T12:49:20.603Z,0.63
2022-10-21T12:52:24.729Z,1.15
2022-10-21T12:55:29.097Z,1.23
2022-10-21T12:58:37.577Z,1.92
2022-10-21T13:01:45.041Z,1.33
2022-10-21T13:04:50.098Z,0.70
2022-10-21T13:08:27.186Z,1.85
2022-10-21T13:11:40.887Z,2.45
2022-10-21T13:14:46.274Z,3.15
2022-10-21T13:17:52.271Z,1.77
2022-10-21T13:21:00.284Z,0.82
2022-10-21T13:24:26.193Z,0.90
2022-10-21T13:27:32.132Z,1.05
2022-10-21T13:30:37.248Z,1.00
2022-10-21T13:33:40.961Z,2.38
2022-10-21T13:36:43.946Z,1.67
2022-10-21T13:39:52.695Z,1.20
2022-10-21T13:42:59.658Z,1.73
2022-10-21T13:46:07.715Z,0.68
2022-10-21T13:49:26.998Z,0.40
2022-10-21T13:52:29.859Z,0.75
2022-10-21T13:55:32.479Z,2.05
2022-10-21T13:58:39.978Z,0.63
2022-10-21T14:01:47.126Z,3.80
2022-10-21T14:04:49.949Z,3.33
2022-10-21T14:07:52.621Z,1.02
2022-10-21T14:10:59.820Z,1.35
2022-10-21T14:14:08.113Z,1.13
2022-10-21T14:17:18.211Z,0.63
2022-10-21T14:20:26.289Z,1.40
2022-10-21T14:23:30.626Z,0.80
2022-10-21T14:26:34.253Z,0.45
2022-10-21T14:29:38.566Z,1.65
2022-10-21T14:32:41.809Z,2.45
2022-10-21T14:35:44.697Z,1.08
2022-10-21T14:38:54.755Z,0.52
2022-10-21T14:42:03.901Z,0.63
2022-10-21T14:45:16.076Z,0.57
2022-10-21T14:48:26.002Z,0.50
2022-10-21T14:51:30.455Z,0.70
2022-10-21T14:54:41.619Z,0.50
2022-10-21T14:57:47.498Z,0.40
2022-10-21T15:00:57.025Z,0.90
2022-10-21T15:04:01.663Z,2.10
2022-10-21T15:07:04.326Z,0.73
2022-10-21T15:10:19.488Z,2.63
2022-10-21T15:13:22.549Z,1.27
2022-10-21T15:16:30.498Z,0.40
2022-10-21T15:19:45.571Z,0.80
2022-10-21T15:22:49.593Z,0.77
2022-10-21T15:25:55.038Z,1.63
2022-10-21T15:28:58.053Z,1.00
2022-10-21T15:32:02.584Z,1.88
2022-10-21T15:35:13.529Z,1.17
2022-10-21T15:38:16.118Z,0.52
2022-10-21T15:41:20.977Z,1.10
2022-10-21T15:44:26.495Z,2.53
2022-10-21T15:47:30.764Z,0.88
2022-10-21T15:50:36.515Z,0.50
2022-10-21T15:53:41.050Z,1.40
2022-10-21T15:56:49.668Z,2.28
2022-10-21T15:59:52.640Z,1.20
2022-10-21T16:02:57.402Z,1.08
2022-10-21T16:06:00.013Z,0.73
2022-10-21T16:09:02.691Z,0.68
2022-10-21T16:12:07.104Z,3.20
2022-10-21T16:15:10.723Z,1.95
2022-10-21T16:18:16.884Z,1.05
2022-10-21T16:21:21.855Z,0.80
2022-10-21T16:24:24.499Z,0.88
2022-10-21T16:27:43.388Z,0.95
2022-10-21T16:30:49.708Z,0.75
2022-10-21T16:33:54.052Z,0.82
2022-10-21T16:36:56.914Z,0.80
2022-10-21T16:39:59.976Z,0.95
2022-10-21T16:43:02.634Z,0.95
2022-10-21T16:46:05.379Z,1.02
2022-10-21T16:49:13.581Z,1.85
2022-10-21T16:52:17.370Z,2.15
2022-10-21T16:55:20.330Z,0.52
2022-10-21T16:58:22.986Z,1.88
2022-10-21T17:01:26.321Z,0.60
2022-10-21T17:04:30.355Z,1.10
2022-10-21T17:07:34.050Z,1.13
2022-10-21T17:10:36.769Z,1.58
2022-10-21T17:13:39.409Z,0.82
2022-10-21T17:16:42.194Z,0.95
2022-10-21T17:19:46.171Z,2.08
2022-10-21T17:22:48.859Z,1.60
2022-10-21T17:25:51.604Z,1.40
2022-10-21T17:28:55.509Z,0.93
2022-10-21T17:31:58.117Z,1.33
2022-10-21T17:35:02.126Z,1.63
2022-10-21T17:38:05.165Z,1.90
2022-10-21T17:41:07.818Z,3.65
2022-10-21T17:44:12.182Z,2.38
2022-10-21T17:47:14.864Z,1.50
2022-10-21T17:50:23.401Z,2.40
2022-10-21T17:53:27.051Z,3.95
2022-10-21T17:56:29.758Z,4.97
2022-10-21T17:59:33.456Z,2.75
2022-10-21T18:02:36.473Z,2.55
2022-10-21T18:05:42.907Z,2.28
2022-10-21T18:08:45.790Z,1.25
2022-10-21T18:11:48.586Z,1.15
2022-10-21T18:14:52.303Z,1.13
2022-10-21T18:17:55.330Z,0.68
2022-10-21T18:21:02.647Z,1.27
2022-10-21T18:24:09.869Z,1.13
2022-10-21T18:27:15.023Z,2.42
2022-10-21T18:30:17.883Z,1.45
2022-10-21T18:33:23.243Z,1.73
2022-10-21T18:36:28.450Z,1.40
2022-10-21T18:39:39.897Z,3.55
2022-10-21T18:45:59.982Z,2.15
2022-10-21T18:49:03.799Z,1.60
2022-10-21T18:52:13.186Z,1.52
2022-10-21T18:55:15.930Z,1.02
2022-10-21T18:58:35.702Z,1.20
2022-10-21T19:02:00.778Z,1.13
2022-10-21T19:05:03.434Z,0.95
2022-10-21T19:08:07.537Z,1.50
2022-10-21T19:39:38.707Z,1.25
2022-10-21T19:42:52.485Z,1.42
2022-10-21T19:45:55.279Z,2.33
2022-10-21T19:49:02.251Z,1.65
2022-10-21T19:52:05.154Z,1.65
2022-10-21T19:55:09.812Z,1.23
2022-10-21T19:58:20.517Z,2.00
2022-10-21T20:01:26.292Z,1.40
2022-10-21T20:04:31.353Z,1.55
2022-10-21T20:07:37.410Z,2.13
2022-10-21T20:10:41.689Z,1.75
2022-10-21T20:13:45.910Z,1.80
2022-10-21T20:16:50.042Z,1.52
2022-10-21T20:19:52.729Z,1.20
2022-10-21T20:22:55.392Z,2.22
2022-10-21T20:26:00.185Z,1.92
2022-10-21T20:29:03.117Z,2.08
2022-10-21T20:32:05.840Z,1.70
2022-10-21T20:35:09.670Z,1.10
2022-10-21T20:38:13.824Z,3.35
2022-10-21T20:41:21.797Z,3.50
2022-10-21T20:44:37.040Z,3.65
2022-10-21T20:47:56.399Z,1.75
2022-10-21T20:51:10.962Z,2.47
2022-10-21T20:54:35.324Z,2.40
2022-10-21T20:57:45.634Z,1.98
2022-10-21T21:04:33.959Z,3.58
2022-10-21T21:07:53.346Z,2.25
2022-10-21T21:11:01.025Z,3.90
2022-10-21T21:14:08.075Z,2.63
2022-10-21T21:17:13.270Z,1.83
2022-10-21T21:20:16.390Z,3.03
2022-10-21T21:23:19.425Z,2.05
2022-10-21T21:26:23.730Z,1.02
2022-10-21T21:29:27.972Z,3.65
2022-10-21T21:32:30.646Z,2.20
2022-10-21T21:35:33.255Z,1.45
2022-10-21T21:38:36.734Z,1.17
2022-10-21T21:41:39.950Z,1.85
2022-10-21T21:44:44.018Z,1.27
2022-10-21T21:47:46.903Z,1.77
2022-10-21T21:50:49.819Z,2.92
2022-10-21T21:53:52.569Z,4.93
2022-10-21T21:57:10.328Z,2.45
2022-10-21T22:00:19.658Z,0.73
2022-10-21T22:03:22.442Z,2.38
2022-10-21T22:06:28.318Z,0.50
2022-10-21T22:09:31.242Z,1.00
2022-10-21T22:12:33.885Z,1.05
2022-10-21T22:15:47.938Z,2.30
2022-10-21T22:18:51.571Z,0.73
2022-10-21T22:21:54.181Z,1.55
2022-10-21T22:24:56.864Z,0.65
2022-10-21T22:27:59.506Z,0.45
2022-10-21T22:31:06.717Z,1.95
2022-10-21T22:34:11.897Z,0.55
2022-10-21T22:37:14.812Z,0.52
2022-10-21T22:40:17.459Z,0.30
2022-10-21T22:43:20.157Z,1.38
2022-10-21T22:46:39.678Z,0.30
2022-10-21T22:49:43.627Z,0.77
2022-10-21T22:52:46.245Z,0.90
2022-10-21T22:55:48.905Z,0.22
2022-10-21T22:58:51.496Z,1.38
2022-10-21T23:01:55.516Z,0.30
2022-10-21T23:04:58.110Z,0.30
2022-10-21T23:08:00.865Z,0.20
2022-10-21T23:11:03.469Z,0.98
2022-10-21T23:14:08.662Z,1.45
2022-10-21T23:17:13.050Z,0.60
2022-10-21T23:20:15.790Z,1.70
2022-10-21T23:23:18.433Z,0.75
2022-10-21T23:26:21.084Z,0.77
2022-10-21T23:29:23.796Z,0.70
2022-10-21T23:32:27.768Z,0.50
2022-10-21T23:35:30.843Z,0.68
2022-10-21T23:38:33.464Z,1.33
2022-10-21T23:41:36.093Z,0.57
2022-10-21T23:44:38.681Z,0.22
2022-10-21T23:47:43.081Z,0.40
2022-10-21T23:50:46.378Z,1.40
2022-10-21T23:53:49.265Z,0.60
2022-10-21T23:56:51.890Z,0.17
2022-10-21T23:59:54.555Z,0.73
